createdAt,value
2022-12-01T00:01:41.768Z,10.63
2022-12-01T00:04:11.941Z,10.55
2022-12-01T00:06:40.473Z,11.27
2022-12-01T00:09:27.885Z,12.82
2022-12-01T00:11:56.434Z,12.07
2022-12-01T00:14:25.064Z,11.25
2022-12-01T00:16:53.804Z,11.82
2022-12-01T00:19:26.069Z,12.18
2022-12-01T00:21:54.832Z,11.65
2022-12-01T00:24:24.638Z,12.65
2022-12-01T00:29:21.721Z,11.80
2022-12-01T00:34:25.809Z,11.48
2022-12-01T00:36:54.474Z,10.35
2022-12-01T00:39:23.024Z,11.70
2022-12-01T00:41:51.580Z,10.85
2022-12-01T00:44:20.376Z,11.77
2022-12-01T00:46:48.875Z,12.50
2022-12-01T00:49:17.840Z,11.88
2022-12-01T00:51:47.819Z,11.13
2022-12-01T00:54:16.608Z,11.18
2022-12-01T00:56:45.079Z,10.52
2022-12-01T00:59:13.856Z,10.60
2022-12-01T01:01:42.466Z,11.45
2022-12-01T01:04:11.034Z,11.85
2022-12-01T01:06:39.649Z,12.00
2022-12-01T01:09:09.687Z,12.23
2022-12-01T01:11:38.621Z,11.20
2022-12-01T01:14:08.150Z,11.45
2022-12-01T01:16:36.803Z,11.65
2022-12-01T01:19:05.391Z,12.75
2022-12-01T01:21:34.175Z,11.85
2022-12-01T01:24:02.682Z,11.95
2022-12-01T01:26:34.017Z,11.80
2022-12-01T01:29:04.552Z,11.05
2022-12-01T01:31:33.437Z,12.57
2022-12-01T01:34:02.247Z,11.57
2022-12-01T01:36:30.855Z,10.50
2022-12-01T01:38:59.423Z,11.13
2022-12-01T01:41:28.089Z,11.02
2022-12-01T01:43:59.338Z,11.75
2022-12-01T01:46:29.499Z,11.18
2022-12-01T01:49:01.511Z,11.40
2022-12-01T01:51:34.916Z,11.38
2022-12-01T01:54:07.492Z,12.70
2022-12-01T01:56:37.583Z,11.45
2022-12-01T01:59:07.731Z,12.35
2022-12-01T02:01:36.984Z,11.27
2022-12-01T02:04:06.341Z,10.95
2022-12-01T02:06:35.014Z,11.15
2022-12-01T02:09:03.594Z,10.93
2022-12-01T02:11:57.618Z,11.88
2022-12-01T02:14:48.939Z,10.38
2022-12-01T02:17:27.317Z,12.32
2022-12-01T02:20:43.587Z,12.48
2022-12-01T02:23:39.899Z,10.35
2022-12-01T02:26:24.062Z,11.48
2022-12-01T02:29:12.524Z,10.77
2022-12-01T02:31:48.466Z,10.52
2022-12-01T02:34:25.364Z,10.75
2022-12-01T02:36:59.915Z,10.57
2022-12-01T02:39:39.513Z,11.45
2022-12-01T02:44:45.911Z,10.30
2022-12-01T02:47:17.892Z,11.07
2022-12-01T02:49:50.265Z,12.85
2022-12-01T02:52:20.478Z,11.60
2022-12-01T02:54:49.600Z,11.73
2022-12-01T02:57:19.002Z,12.80
2022-12-01T02:59:52.056Z,11.68
2022-12-01T03:02:33.383Z,12.10
2022-12-01T03:05:06.107Z,12.20
2022-12-01T03:07:48.675Z,11.65
2022-12-01T03:10:24.154Z,15.20
2022-12-01T03:13:08.339Z,15.75
2022-12-01T03:15:41.539Z,16.05
2022-12-01T03:18:25.532Z,18.08
2022-12-01T03:21:00.645Z,17.63
2022-12-01T03:23:32.674Z,17.23
2022-12-01T03:26:03.482Z,16.65
2022-12-01T03:28:35.913Z,17.15
2022-12-01T03:31:09.359Z,16.30
2022-12-01T03:33:43.869Z,17.25
2022-12-01T03:36:16.578Z,15.65
2022-12-01T03:38:50.099Z,17.33
2022-12-01T03:41:23.083Z,15.55
2022-12-01T03:44:05.288Z,16.38
2022-12-01T03:46:41.400Z,16.70
2022-12-01T03:49:12.078Z,16.90
2022-12-01T03:51:45.739Z,15.93
2022-12-01T03:54:20.601Z,17.10
2022-12-01T03:56:53.714Z,15.15
2022-12-01T03:59:39.119Z,15.77
2022-12-01T04:02:14.766Z,14.75
2022-12-01T04:04:45.265Z,15.80
2022-12-01T04:07:15.149Z,13.23
2022-12-01T04:12:33.288Z,12.95
2022-12-01T04:15:03.674Z,13.07
2022-12-01T04:17:32.446Z,14.50
2022-12-01T04:20:02.408Z,13.70
2022-12-01T04:22:31.003Z,13.70
2022-12-01T04:24:59.649Z,15.25
2022-12-01T04:27:28.150Z,13.77
2022-12-01T04:29:56.714Z,15.00
2022-12-01T04:32:25.456Z,12.63
2022-12-01T04:34:53.987Z,13.88
2022-12-01T04:37:23.899Z,14.23
2022-12-01T04:39:52.656Z,13.75
2022-12-01T04:42:21.286Z,13.77
2022-12-01T04:44:49.806Z,13.52
2022-12-01T04:47:18.304Z,13.85
2022-12-01T04:49:46.987Z,13.15
2022-12-01T04:52:15.883Z,14.37
2022-12-01T04:54:45.816Z,13.27
2022-12-01T04:57:14.707Z,13.40
2022-12-01T04:59:43.176Z,12.55
2022-12-01T05:02:11.821Z,12.68
2022-12-01T05:04:41.784Z,13.52
2022-12-01T05:07:10.494Z,13.63
2022-12-01T05:09:39.255Z,13.93
2022-12-01T05:12:09.392Z,13.25
2022-12-01T05:14:38.024Z,13.25
2022-12-01T05:17:06.561Z,12.70
2022-12-01T05:19:52.626Z,12.23
2022-12-01T05:22:42.607Z,13.57
2022-12-01T05:25:10.258Z,14.10
2022-12-01T05:27:40.204Z,13.80
2022-12-01T05:30:09.963Z,15.35
2022-12-01T05:35:07.817Z,14.23
2022-12-01T05:37:36.421Z,15.63
2022-12-01T05:40:05.479Z,16.33
2022-12-01T05:42:34.057Z,15.68
2022-12-01T05:45:04.207Z,16.75
2022-12-01T05:47:32.779Z,16.85
2022-12-01T05:50:05.484Z,16.67
2022-12-01T05:52:35.683Z,15.65
2022-12-01T05:55:04.611Z,15.23
2022-12-01T05:57:33.296Z,15.13
2022-12-01T06:00:03.457Z,15.35
2022-12-01T06:02:39.935Z,15.65
2022-12-01T06:05:09.965Z,14.77
2022-12-01T06:07:40.429Z,14.70
2022-12-01T06:10:10.627Z,15.35
2022-12-01T06:12:39.730Z,15.77
2022-12-01T06:15:12.669Z,14.95
2022-12-01T06:17:41.645Z,14.75
2022-12-01T06:20:11.621Z,14.77
2022-12-01T06:22:40.213Z,13.95
2022-12-01T06:25:09.896Z,14.38
2022-12-01T06:27:39.216Z,15.75
2022-12-01T06:30:10.796Z,15.23
2022-12-01T06:32:40.174Z,16.55
2022-12-01T06:35:09.552Z,16.88
2022-12-01T06:37:38.042Z,18.40
2022-12-01T06:40:08.147Z,17.20
2022-12-01T06:42:36.679Z,16.50
2022-12-01T06:45:05.625Z,16.95
2022-12-01T06:47:35.531Z,18.15
2022-12-01T06:50:05.442Z,18.98
2022-12-01T06:52:34.053Z,17.30
2022-12-01T06:55:04.006Z,17.42
2022-12-01T06:57:33.346Z,17.65
2022-12-01T07:00:02.262Z,16.63
2022-12-01T07:02:31.243Z,17.00
2022-12-01T07:05:01.226Z,17.70
2022-12-01T07:07:29.850Z,16.17
2022-12-01T07:09:58.370Z,18.20
2022-12-01T07:12:26.897Z,16.67
2022-12-01T07:14:55.532Z,17.52
2022-12-01T07:17:24.047Z,17.90
2022-12-01T07:19:52.520Z,18.02
2022-12-01T07:22:22.473Z,16.80
2022-12-01T07:24:51.045Z,17.02
2022-12-01T07:27:19.570Z,18.20
2022-12-01T07:29:48.759Z,19.42
2022-12-01T07:32:17.455Z,17.98
2022-12-01T07:34:45.999Z,16.77
2022-12-01T07:37:14.590Z,19.55
2022-12-01T07:39:44.544Z,19.52
2022-12-01T07:42:13.100Z,17.75
2022-12-01T07:44:41.591Z,21.15
2022-12-01T07:47:10.206Z,18.85
2022-12-01T07:49:39.502Z,20.15
2022-12-01T07:52:08.128Z,17.70
2022-12-01T07:54:36.651Z,24.13
2022-12-01T07:57:06.629Z,21.05
2022-12-01T07:59:35.174Z,21.20
2022-12-01T08:02:03.720Z,19.98
2022-12-01T08:04:32.302Z,22.05
2022-12-01T08:07:00.817Z,21.50
2022-12-01T08:09:29.347Z,19.15
2022-12-01T08:11:57.836Z,20.08
2022-12-01T08:14:27.753Z,19.52
2022-12-01T08:16:56.316Z,21.27
2022-12-01T08:19:25.930Z,21.15
2022-12-01T08:21:54.473Z,23.92
2022-12-01T08:24:23.128Z,20.83
2022-12-01T08:26:51.731Z,23.27
2022-12-01T08:29:20.707Z,26.95
2022-12-01T08:31:50.813Z,22.80
2022-12-01T08:34:19.561Z,23.08
2022-12-01T08:36:48.379Z,30.65
2022-12-01T08:39:17.003Z,22.87
2022-12-01T08:41:45.588Z,21.00
2022-12-01T08:44:14.276Z,23.88
2022-12-01T08:46:42.834Z,23.95
2022-12-01T08:49:12.894Z,24.98
2022-12-01T08:51:41.451Z,27.80
2022-12-01T08:54:12.448Z,24.63
2022-12-01T08:56:43.929Z,26.58
2022-12-01T08:59:12.740Z,23.08
2022-12-01T09:01:52.266Z,32.45
2022-12-01T09:04:23.753Z,28.70
2022-12-01T09:06:53.616Z,28.25
2022-12-01T09:09:26.026Z,36.88
2022-12-01T09:11:55.070Z,22.55
2022-12-01T09:14:24.662Z,28.67
2022-12-01T09:16:53.334Z,26.17
2022-12-01T09:19:24.961Z,32.72
2022-12-01T09:21:54.374Z,33.45
2022-12-01T09:24:22.942Z,31.50
2022-12-01T09:26:51.859Z,32.10
2022-12-01T09:29:20.396Z,34.08
2022-12-01T09:31:48.938Z,32.28
2022-12-01T09:34:19.109Z,35.25
2022-12-01T09:36:49.507Z,35.58
2022-12-01T09:39:21.432Z,30.83
2022-12-01T09:41:53.534Z,34.05
2022-12-01T09:44:33.242Z,21.30
2022-12-01T09:49:54.447Z,22.38
2022-12-01T09:52:27.587Z,24.02
2022-12-01T09:54:59.089Z,38.40
2022-12-01T09:57:33.686Z,29.50
2022-12-01T10:00:05.321Z,35.50
2022-12-01T10:02:44.567Z,31.15
2022-12-01T10:05:16.498Z,25.73
2022-12-01T10:07:49.958Z,21.15
2022-12-01T10:10:26.357Z,21.77
2022-12-01T10:12:55.347Z,26.65
2022-12-01T10:15:35.894Z,19.98
2022-12-01T10:18:20.755Z,28.30
2022-12-01T10:20:56.890Z,19.77
2022-12-01T10:23:54.987Z,22.45
2022-12-01T10:26:31.290Z,29.30
2022-12-01T10:29:13.227Z,19.80
2022-12-01T10:31:53.052Z,22.17
2022-12-01T10:34:24.592Z,23.35
2022-12-01T10:36:53.154Z,21.50
2022-12-01T10:39:29.546Z,21.08
2022-12-01T10:42:04.067Z,25.25
2022-12-01T10:44:32.839Z,24.98
2022-12-01T10:47:01.796Z,24.93
2022-12-01T10:49:39.476Z,28.67
2022-12-01T10:52:08.996Z,31.88
2022-12-01T10:54:40.769Z,27.80
2022-12-01T10:57:17.599Z,29.40
2022-12-01T10:59:52.711Z,30.55
2022-12-01T11:02:24.158Z,30.52
2022-12-01T11:04:56.280Z,37.47
2022-12-01T11:07:27.042Z,31.45
2022-12-01T11:10:15.313Z,69.72
2022-12-01T11:12:44.761Z,41.70
2022-12-01T11:15:23.883Z,25.10
2022-12-01T11:18:01.642Z,37.17
2022-12-01T11:20:33.930Z,56.00
2022-12-01T11:23:29.946Z,42.67
2022-12-01T11:26:11.949Z,35.08
2022-12-01T11:28:52.931Z,22.40
2022-12-01T11:31:25.283Z,17.67
2022-12-01T11:33:56.242Z,16.13
2022-12-01T11:36:29.135Z,20.70
2022-12-01T11:39:00.592Z,22.33
2022-12-01T11:41:35.745Z,22.98
2022-12-01T11:44:22.443Z,22.77
2022-12-01T11:47:21.653Z,20.23
2022-12-01T11:49:47.413Z,21.83
2022-12-01T11:52:24.608Z,27.92
2022-12-01T11:55:06.927Z,27.50
2022-12-01T11:57:42.871Z,27.00
2022-12-01T12:00:15.814Z,24.40
2022-12-01T12:03:00.615Z,17.60
2022-12-01T12:05:49.151Z,16.60
2022-12-01T12:08:30.252Z,16.42
2022-12-01T12:11:09.325Z,17.13
2022-12-01T12:14:09.061Z,18.02
2022-12-01T12:16:48.994Z,18.08
2022-12-01T12:22:25.065Z,18.83
2022-12-01T12:25:04.271Z,20.33
2022-12-01T12:27:43.950Z,17.15
2022-12-01T12:30:22.705Z,16.70
2022-12-01T12:33:33.473Z,21.13
2022-12-01T12:36:11.622Z,16.65
2022-12-01T12:38:53.750Z,18.40
2022-12-01T12:41:33.586Z,17.35
2022-12-01T12:46:51.072Z,14.93
2022-12-01T12:49:30.485Z,14.85
2022-12-01T12:52:08.414Z,16.35
2022-12-01T12:54:44.630Z,20.58
2022-12-01T12:57:24.392Z,25.02
2022-12-01T13:02:29.430Z,20.35
2022-12-01T13:05:02.438Z,23.45
2022-12-01T13:07:38.088Z,20.50
2022-12-01T13:10:15.876Z,17.73
2022-12-01T13:12:52.738Z,17.88
2022-12-01T13:15:22.530Z,15.50
2022-12-01T13:20:27.733Z,18.05
2022-12-01T13:22:59.371Z,15.90
2022-12-01T13:25:31.580Z,14.93
2022-12-01T13:28:02.420Z,15.70
2022-12-01T13:30:30.996Z,14.70
2022-12-01T13:33:03.557Z,15.25
2022-12-01T13:35:34.135Z,14.82
2022-12-01T13:38:25.984Z,16.90
2022-12-01T13:41:25.362Z,17.48
2022-12-01T13:44:00.856Z,15.85
2022-12-01T13:46:33.168Z,14.60
2022-12-01T13:49:05.285Z,13.05
2022-12-01T13:52:06.658Z,13.25
2022-12-01T13:54:38.484Z,13.88
2022-12-01T13:57:13.477Z,12.40
2022-12-01T14:00:20.517Z,13.48
2022-12-01T14:03:27.386Z,15.32
2022-12-01T14:06:06.753Z,13.70
2022-12-01T14:08:37.816Z,13.65
2022-12-01T14:11:08.616Z,12.40
2022-12-01T14:13:49.307Z,13.38
2022-12-01T14:16:18.140Z,11.10
2022-12-01T14:18:52.890Z,11.52
2022-12-01T14:21:43.916Z,12.35
2022-12-01T14:24:24.368Z,12.35
2022-12-01T14:26:53.864Z,14.48
2022-12-01T14:29:38.478Z,12.77
2022-12-01T14:32:25.018Z,12.23
2022-12-01T14:35:02.599Z,12.23
2022-12-01T14:37:42.788Z,11.57
2022-12-01T14:40:18.833Z,10.50
2022-12-01T14:43:10.839Z,15.13
2022-12-01T14:45:44.149Z,12.77
2022-12-01T14:48:15.338Z,11.60
2022-12-01T14:50:50.305Z,11.52
2022-12-01T14:53:27.127Z,11.48
2022-12-01T14:55:58.896Z,10.77
2022-12-01T14:58:30.956Z,11.32
2022-12-01T15:01:05.949Z,13.50
2022-12-01T15:03:41.840Z,15.48
2022-12-01T15:06:11.630Z,14.20
2022-12-01T15:08:49.115Z,11.93
2022-12-01T15:11:25.763Z,11.88
2022-12-01T15:13:56.111Z,14.50
2022-12-01T15:16:26.369Z,16.70
2022-12-01T15:18:55.220Z,14.27
2022-12-01T15:21:26.417Z,16.98
2022-12-01T15:23:58.581Z,21.00
2022-12-01T15:26:30.534Z,17.27
2022-12-01T15:29:17.036Z,16.35
2022-12-01T15:31:48.326Z,24.48
2022-12-01T15:34:19.226Z,24.80
2022-12-01T15:36:48.451Z,19.80
2022-12-01T15:39:20.641Z,17.00
2022-12-01T15:41:54.165Z,19.75
2022-12-01T15:44:28.109Z,15.32
2022-12-01T15:46:56.823Z,15.23
2022-12-01T15:49:32.719Z,13.00
2022-12-01T15:52:10.468Z,12.88
2022-12-01T15:54:40.860Z,12.32
2022-12-01T15:57:09.759Z,13.88
2022-12-01T15:59:41.187Z,13.20
2022-12-01T16:02:25.968Z,12.50
2022-12-01T16:05:07.893Z,12.00
2022-12-01T16:08:11.465Z,12.85
2022-12-01T16:10:31.950Z,13.02
2022-12-01T16:13:39.613Z,15.68
2022-12-01T16:16:31.276Z,16.75
2022-12-01T16:19:02.300Z,14.95
2022-12-01T16:21:35.324Z,20.73
2022-12-01T16:24:06.452Z,33.03
2022-12-01T16:26:36.598Z,28.45
2022-12-01T16:29:15.303Z,22.95
2022-12-01T16:32:12.578Z,20.10
2022-12-01T16:34:45.888Z,29.52
2022-12-01T16:37:22.907Z,16.48
2022-12-01T16:39:51.753Z,19.08
2022-12-01T16:42:23.173Z,18.27
2022-12-01T16:44:52.854Z,17.83
2022-12-01T16:47:24.181Z,20.58
2022-12-01T16:49:53.232Z,17.30
2022-12-01T16:55:25.797Z,16.02
2022-12-01T16:57:56.607Z,15.25
2022-12-01T17:00:25.979Z,17.13
2022-12-01T17:02:54.592Z,13.75
2022-12-01T17:05:23.736Z,18.77
2022-12-01T17:07:52.676Z,16.40
2022-12-01T17:10:22.007Z,21.13
2022-12-01T17:12:52.770Z,16.85
2022-12-01T17:20:20.115Z,15.52
2022-12-01T17:22:48.843Z,16.33
2022-12-01T17:25:17.441Z,17.23
2022-12-01T17:27:46.002Z,16.98
2022-12-01T17:30:15.049Z,18.58
2022-12-01T17:32:46.594Z,15.00
2022-12-01T17:35:15.258Z,19.35
2022-12-01T17:37:43.763Z,20.50
2022-12-01T17:40:14.970Z,19.27
2022-12-01T17:42:49.998Z,14.95
2022-12-01T17:45:19.555Z,15.43
2022-12-01T17:47:49.761Z,15.13
2022-12-01T17:50:18.548Z,17.77
2022-12-01T17:52:47.454Z,18.00
2022-12-01T17:55:16.042Z,15.52
2022-12-01T17:57:45.586Z,15.60
2022-12-01T18:00:15.543Z,15.82
2022-12-01T18:02:44.272Z,18.35
2022-12-01T18:05:14.433Z,16.00
2022-12-01T18:07:43.140Z,15.88
2022-12-01T18:10:12.576Z,14.05
2022-12-01T18:12:41.871Z,15.50
2022-12-01T18:15:12.273Z,15.50
2022-12-01T18:17:40.865Z,16.15
2022-12-01T18:20:10.715Z,14.98
2022-12-01T18:25:09.620Z,17.40
2022-12-01T18:27:38.279Z,19.27
2022-12-01T18:30:08.361Z,13.85
2022-12-01T18:32:37.132Z,15.60
2022-12-01T18:35:06.989Z,15.38
2022-12-01T18:42:36.032Z,14.65
2022-12-01T18:45:04.921Z,13.18
2022-12-01T18:47:34.801Z,14.83
2022-12-01T18:50:03.582Z,15.05
2022-12-01T18:52:32.477Z,13.80
2022-12-01T18:55:01.214Z,14.73
2022-12-01T18:57:31.396Z,14.75
2022-12-01T18:59:59.951Z,13.40
2022-12-01T19:02:28.680Z,14.25
2022-12-01T19:04:57.270Z,14.73
2022-12-01T19:07:29.801Z,13.70
2022-12-01T19:09:59.854Z,14.55
2022-12-01T19:12:28.420Z,15.52
2022-12-01T19:14:58.500Z,14.88
2022-12-01T19:17:27.273Z,14.50
2022-12-01T19:19:56.159Z,15.50
2022-12-01T19:22:24.799Z,15.45
2022-12-01T19:24:53.979Z,14.30
2022-12-01T19:27:23.050Z,15.70
2022-12-01T19:29:52.435Z,16.67
2022-12-01T19:34:54.623Z,13.68
2022-12-01T19:37:23.792Z,14.40
2022-12-01T19:39:54.231Z,14.23
2022-12-01T19:42:23.300Z,13.68
2022-12-01T19:44:52.452Z,12.25
2022-12-01T19:47:22.865Z,12.00
2022-12-01T19:49:52.687Z,14.77
2022-12-01T19:54:49.865Z,15.00
2022-12-01T19:57:18.708Z,15.02
2022-12-01T19:59:47.236Z,14.52
2022-12-01T20:02:15.976Z,16.23
2022-12-01T20:04:45.986Z,17.13
2022-12-01T20:07:14.837Z,16.85
2022-12-01T20:09:49.642Z,14.85
2022-12-01T20:12:18.659Z,14.32
2022-12-01T20:14:48.306Z,15.57
2022-12-01T20:17:17.208Z,15.13
2022-12-01T20:19:47.113Z,13.80
2022-12-01T20:22:15.629Z,13.68
2022-12-01T20:24:44.200Z,13.43
2022-12-01T20:27:12.952Z,12.02
2022-12-01T20:29:41.650Z,12.77
2022-12-01T20:32:11.351Z,13.20
2022-12-01T20:37:10.988Z,12.10
2022-12-01T20:39:41.528Z,11.75
2022-12-01T20:42:11.370Z,12.10
2022-12-01T20:44:40.510Z,11.57
2022-12-01T20:47:09.262Z,11.60
2022-12-01T20:49:37.849Z,11.38
2022-12-01T20:52:07.167Z,12.18
2022-12-01T20:54:37.257Z,12.60
2022-12-01T20:57:06.195Z,12.57
2022-12-01T20:59:36.439Z,11.80
2022-12-01T21:02:05.145Z,12.88
2022-12-01T21:04:33.723Z,11.55
2022-12-01T21:07:02.293Z,11.70
2022-12-01T21:09:30.962Z,11.77
2022-12-01T21:12:20.162Z,12.50
2022-12-01T21:15:01.153Z,12.55
2022-12-01T21:17:34.854Z,11.88
2022-12-01T21:20:13.023Z,12.40
2022-12-01T21:22:47.273Z,10.98
2022-12-01T21:25:19.061Z,12.10
2022-12-01T21:27:49.497Z,11.35
2022-12-01T21:30:21.987Z,12.40
2022-12-01T21:32:51.182Z,12.50
2022-12-01T21:35:21.443Z,13.00
2022-12-01T21:37:50.898Z,11.95
2022-12-01T21:40:22.238Z,12.77
2022-12-01T21:42:52.767Z,12.90
2022-12-01T21:45:27.979Z,11.98
2022-12-01T21:48:02.562Z,12.45
2022-12-01T21:50:32.948Z,13.40
2022-12-01T21:53:01.599Z,13.50
2022-12-01T21:55:39.776Z,14.80
2022-12-01T21:58:34.615Z,14.68
2022-12-01T22:01:04.235Z,14.15
2022-12-01T22:03:34.852Z,15.10
2022-12-01T22:06:28.787Z,15.18
2022-12-01T22:09:01.250Z,14.02
2022-12-01T22:11:31.462Z,15.05
2022-12-01T22:14:12.568Z,14.93
2022-12-01T22:16:44.560Z,14.75
2022-12-01T22:19:27.758Z,13.85
2022-12-01T22:22:03.728Z,15.10
2022-12-01T22:24:40.777Z,15.18
2022-12-01T22:27:26.801Z,15.00
2022-12-01T22:30:01.486Z,13.88
2022-12-01T22:32:41.970Z,12.88
2022-12-01T22:35:27.179Z,13.45
2022-12-01T22:38:00.544Z,15.05
2022-12-01T22:40:36.075Z,15.57
2022-12-01T22:43:27.063Z,13.45
2022-12-01T22:46:28.416Z,14.68
2022-12-01T22:49:00.506Z,13.90
2022-12-01T22:51:38.914Z,13.68
2022-12-01T22:54:39.868Z,16.98
2022-12-01T22:57:31.343Z,14.77
2022-12-01T23:00:02.783Z,15.00
2022-12-01T23:02:35.217Z,15.05
2022-12-01T23:05:19.383Z,14.18
2022-12-01T23:07:48.051Z,15.70
2022-12-01T23:10:19.209Z,13.95
2022-12-01T23:12:49.514Z,14.75
2022-12-01T23:15:32.455Z,14.93
2022-12-01T23:18:10.502Z,15.15
2022-12-01T23:20:41.566Z,14.40
2022-12-01T23:23:15.214Z,14.75
2022-12-01T23:25:45.119Z,14.35
2022-12-01T23:30:45.874Z,14.43
2022-12-01T23:33:24.425Z,15.30
2022-12-01T23:36:00.312Z,15.18
2022-12-01T23:38:32.866Z,15.55
2022-12-01T23:41:05.948Z,14.68
2022-12-01T23:43:40.194Z,15.35
2022-12-01T23:46:15.246Z,15.52
2022-12-01T23:48:48.652Z,14.13
2022-12-01T23:51:24.962Z,16.08
2022-12-01T23:53:55.364Z,14.10
2022-12-01T23:56:26.793Z,15.10
2022-12-01T23:58:56.877Z,15.43
